This is the latest recevied weather packets stored in our database for station/object N4DBJ. If no packets are shown the sender has not sent any weather packets the latest 10 day(s).
| Time | Temp. | Humidity | Pressure | Rain* | Wind** | Luminosity | Snow |
|---|---|---|---|---|---|---|---|
| 1777764849 | 11.67° C | 78% | 1015.2 hPa | 0 mm | - | 37 W/m² | - |
| 1777764546 | 12.78° C | 75% | 1015.2 hPa | 0 mm | - | 39 W/m² | - |
| 1777764237 | 12.78° C | 74% | 1014.8 hPa | 0 mm | - | 78 W/m² | - |
| 1777763934 | 12.78° C | 75% | 1014.9 hPa | 0 mm | - | 45 W/m² | - |
| 1777763632 | 12.78° C | 76% | 1015 hPa | 0 mm | - | 53 W/m² | - |
| 1777763330 | 12.22° C | 77% | 1014.9 hPa | 0 mm | - | 49 W/m² | - |
| 1777763028 | 12.22° C | 77% | 1014.7 hPa | 0 mm | - | 130 W/m² | - |
| 1777762724 | 12.22° C | 77% | 1015.1 hPa | 0 mm | - | 154 W/m² | - |
| 1777762420 | 12.22° C | 81% | 1015 hPa | 0 mm | - | 160 W/m² | - |
| 1777762118 | 11.67° C | 81% | 1014.9 hPa | 0 mm | - | 108 W/m² | - |
| 1777761814 | 12.22° C | 83% | 1014.9 hPa | 0 mm | - | 122 W/m² | - |
| 1777761512 | 11.67° C | 84% | 1015 hPa | 0 mm | - | 133 W/m² | - |
| 1777761209 | 11.67° C | 83% | 1014.9 hPa | 0 mm | - | 122 W/m² | - |
| 1777760907 | 12.22° C | 80% | 1014.9 hPa | 0 mm | - | 109 W/m² | - |
| 1777760604 | 12.22° C | 79% | 1014.8 hPa | 0 mm | - | 140 W/m² | - |
| 1777760300 | 12.22° C | 78% | 1014.6 hPa | 0 mm | - | 118 W/m² | - |
| 1777759996 | 12.78° C | 74% | 1014.9 hPa | 0 mm | - | 60 W/m² | - |
| 1777759694 | 13.33° C | 73% | 1014.5 hPa | 0 mm | - | 69 W/m² | - |
| 1777759389 | 13.89° C | 71% | 1014.2 hPa | 0 mm | - | 80 W/m² | - |
| 1777759086 | 15° C | 69% | 1014.1 hPa | 0 mm | - | 146 W/m² | - |
| 1777758783 | 14.44° C | 71% | 1013.9 hPa | 0 mm | - | 299 W/m² | - |
| 1777758480 | 13.33° C | 73% | 1013.8 hPa | 0 mm | - | 389 W/m² | - |
| 1777758176 | 12.78° C | 72% | 1013.7 hPa | 0 mm | - | 167 W/m² | - |
| 1777757874 | 12.78° C | 73% | 1013.9 hPa | 0 mm | - | 50 W/m² | - |
| 1777757571 | 13.33° C | 72% | 1013.8 hPa | 0 mm | - | 61 W/m² | - |
* Rain latest hour (hover to see other rain measurements)
** Current wind speed in m/s (hover to see current wind gust speed)